sensor_id;sensor_type;location;lat;lon;timestamp;P1;durP1;ratioP1;P2;durP2;ratioP2
68082;SDS011;54870;50.336;3.506;2022-08-30T00:00:27;10.20;;;3.20;;
68082;SDS011;54870;50.336;3.506;2022-08-30T00:03:12;7.97;;;3.45;;
68082;SDS011;54870;50.336;3.506;2022-08-30T00:05:39;12.27;;;3.47;;
68082;SDS011;54870;50.336;3.506;2022-08-30T00:08:06;8.88;;;2.90;;
68082;SDS011;54870;50.336;3.506;2022-08-30T00:10:32;8.07;;;3.17;;
68082;SDS011;54870;50.336;3.506;2022-08-30T00:12:58;7.90;;;2.95;;
68082;SDS011;54870;50.336;3.506;2022-08-30T00:15:24;10.15;;;3.63;;
68082;SDS011;54870;50.336;3.506;2022-08-30T00:17:50;8.80;;;3.22;;
68082;SDS011;54870;50.336;3.506;2022-08-30T00:20:20;13.25;;;3.40;;
68082;SDS011;54870;50.336;3.506;2022-08-30T00:22:47;20.42;;;11.38;;
68082;SDS011;54870;50.336;3.506;2022-08-30T00:25:13;10.30;;;4.35;;
68082;SDS011;54870;50.336;3.506;2022-08-30T00:27:40;8.18;;;3.42;;
68082;SDS011;54870;50.336;3.506;2022-08-30T00:30:06;11.13;;;3.70;;
68082;SDS011;54870;50.336;3.506;2022-08-30T00:32:33;9.95;;;3.38;;
68082;SDS011;54870;50.336;3.506;2022-08-30T00:34:59;8.93;;;3.50;;
68082;SDS011;54870;50.336;3.506;2022-08-30T00:37:25;8.02;;;3.40;;
68082;SDS011;54870;50.336;3.506;2022-08-30T00:39:51;9.48;;;3.83;;
68082;SDS011;54870;50.336;3.506;2022-08-30T00:42:17;9.60;;;3.55;;
68082;SDS011;54870;50.336;3.506;2022-08-30T00:44:44;8.35;;;3.53;;
68082;SDS011;54870;50.336;3.506;2022-08-30T00:47:10;9.18;;;3.85;;
68082;SDS011;54870;50.336;3.506;2022-08-30T00:49:37;7.13;;;3.00;;
68082;SDS011;54870;50.336;3.506;2022-08-30T00:52:04;9.23;;;3.67;;
68082;SDS011;54870;50.336;3.506;2022-08-30T00:54:31;12.32;;;3.58;;
68082;SDS011;54870;50.336;3.506;2022-08-30T00:56:58;12.45;;;4.43;;
68082;SDS011;54870;50.336;3.506;2022-08-30T00:59:25;10.27;;;3.72;;
68082;SDS011;54870;50.336;3.506;2022-08-30T01:01:51;11.32;;;4.15;;
68082;SDS011;54870;50.336;3.506;2022-08-30T01:04:17;9.82;;;3.90;;
68082;SDS011;54870;50.336;3.506;2022-08-30T01:06:45;9.80;;;4.32;;
68082;SDS011;54870;50.336;3.506;2022-08-30T01:09:11;7.40;;;3.70;;
68082;SDS011;54870;50.336;3.506;2022-08-30T01:11:38;10.70;;;4.47;;
68082;SDS011;54870;50.336;3.506;2022-08-30T01:14:05;11.60;;;3.88;;
68082;SDS011;54870;50.336;3.506;2022-08-30T01:16:33;8.35;;;4.18;;
68082;SDS011;54870;50.336;3.506;2022-08-30T01:19:00;10.43;;;3.95;;
68082;SDS011;54870;50.336;3.506;2022-08-30T01:21:27;11.73;;;4.20;;
68082;SDS011;54870;50.336;3.506;2022-08-30T01:23:55;8.38;;;3.65;;
68082;SDS011;54870;50.336;3.506;2022-08-30T01:26:22;13.20;;;4.13;;
68082;SDS011;54870;50.336;3.506;2022-08-30T01:28:49;11.27;;;4.32;;
68082;SDS011;54870;50.336;3.506;2022-08-30T01:31:16;12.65;;;4.53;;
68082;SDS011;54870;50.336;3.506;2022-08-30T01:33:42;11.13;;;4.07;;
68082;SDS011;54870;50.336;3.506;2022-08-30T01:36:10;12.52;;;4.32;;
68082;SDS011;54870;50.336;3.506;2022-08-30T01:38:37;9.32;;;4.30;;
68082;SDS011;54870;50.336;3.506;2022-08-30T01:41:17;10.18;;;4.28;;
68082;SDS011;54870;50.336;3.506;2022-08-30T01:43:44;9.52;;;4.28;;
68082;SDS011;54870;50.336;3.506;2022-08-30T01:46:11;9.65;;;4.55;;
68082;SDS011;54870;50.336;3.506;2022-08-30T01:48:38;9.57;;;4.00;;
68082;SDS011;54870;50.336;3.506;2022-08-30T01:51:04;12.10;;;4.20;;
68082;SDS011;54870;50.336;3.506;2022-08-30T01:53:31;12.30;;;4.05;;
68082;SDS011;54870;50.336;3.506;2022-08-30T01:55:57;11.57;;;4.13;;
68082;SDS011;54870;50.336;3.506;2022-08-30T01:58:23;9.38;;;4.70;;
68082;SDS011;54870;50.336;3.506;2022-08-30T02:00:49;11.63;;;4.60;;
68082;SDS011;54870;50.336;3.506;2022-08-30T02:03:15;11.43;;;4.82;;
68082;SDS011;54870;50.336;3.506;2022-08-30T02:05:41;14.35;;;5.63;;
68082;SDS011;54870;50.336;3.506;2022-08-30T02:08:07;11.25;;;5.68;;
68082;SDS011;54870;50.336;3.506;2022-08-30T02:10:33;15.27;;;5.53;;
68082;SDS011;54870;50.336;3.506;2022-08-30T02:12:59;15.55;;;6.20;;
68082;SDS011;54870;50.336;3.506;2022-08-30T02:15:26;14.15;;;5.60;;
68082;SDS011;54870;50.336;3.506;2022-08-30T02:17:52;13.30;;;5.82;;
68082;SDS011;54870;50.336;3.506;2022-08-30T02:20:18;18.27;;;6.50;;
68082;SDS011;54870;50.336;3.506;2022-08-30T02:22:44;15.60;;;6.32;;
68082;SDS011;54870;50.336;3.506;2022-08-30T02:25:11;14.57;;;6.25;;
68082;SDS011;54870;50.336;3.506;2022-08-30T02:27:37;16.20;;;6.20;;
68082;SDS011;54870;50.336;3.506;2022-08-30T02:30:05;28.98;;;6.75;;
68082;SDS011;54870;50.336;3.506;2022-08-30T02:32:31;14.10;;;5.70;;
68082;SDS011;54870;50.336;3.506;2022-08-30T02:34:57;14.05;;;6.10;;
68082;SDS011;54870;50.336;3.506;2022-08-30T02:37:23;15.27;;;5.70;;
68082;SDS011;54870;50.336;3.506;2022-08-30T02:39:49;14.52;;;6.28;;
68082;SDS011;54870;50.336;3.506;2022-08-30T02:42:15;13.48;;;5.80;;
68082;SDS011;54870;50.336;3.506;2022-08-30T02:44:41;14.30;;;6.22;;
68082;SDS011;54870;50.336;3.506;2022-08-30T02:47:07;15.80;;;6.18;;
68082;SDS011;54870;50.336;3.506;2022-08-30T02:49:33;13.98;;;6.22;;
68082;SDS011;54870;50.336;3.506;2022-08-30T02:51:59;17.80;;;6.93;;
68082;SDS011;54870;50.336;3.506;2022-08-30T02:54:26;15.52;;;6.72;;
68082;SDS011;54870;50.336;3.506;2022-08-30T02:56:52;17.13;;;6.80;;
68082;SDS011;54870;50.336;3.506;2022-08-30T02:59:19;15.60;;;6.65;;
68082;SDS011;54870;50.336;3.506;2022-08-30T03:01:45;20.17;;;7.00;;
68082;SDS011;54870;50.336;3.506;2022-08-30T03:04:11;14.98;;;7.03;;
68082;SDS011;54870;50.336;3.506;2022-08-30T03:06:38;15.02;;;6.57;;
68082;SDS011;54870;50.336;3.506;2022-08-30T03:09:04;16.05;;;6.68;;
68082;SDS011;54870;50.336;3.506;2022-08-30T03:11:30;15.40;;;5.88;;
68082;SDS011;54870;50.336;3.506;2022-08-30T03:13:57;10.20;;;5.28;;
68082;SDS011;54870;50.336;3.506;2022-08-30T03:16:23;10.43;;;5.47;;
68082;SDS011;54870;50.336;3.506;2022-08-30T03:18:49;11.68;;;5.30;;
68082;SDS011;54870;50.336;3.506;2022-08-30T03:21:16;15.93;;;5.60;;
68082;SDS011;54870;50.336;3.506;2022-08-30T03:23:42;12.98;;;5.38;;
68082;SDS011;54870;50.336;3.506;2022-08-30T03:26:08;12.20;;;5.57;;
68082;SDS011;54870;50.336;3.506;2022-08-30T03:28:37;13.38;;;5.45;;
68082;SDS011;54870;50.336;3.506;2022-08-30T03:31:03;13.20;;;5.43;;
68082;SDS011;54870;50.336;3.506;2022-08-30T03:33:29;13.23;;;5.95;;
68082;SDS011;54870;50.336;3.506;2022-08-30T03:35:55;13.27;;;6.00;;
68082;SDS011;54870;50.336;3.506;2022-08-30T03:38:21;13.40;;;6.15;;
68082;SDS011;54870;50.336;3.506;2022-08-30T03:40:48;12.05;;;5.97;;
68082;SDS011;54870;50.336;3.506;2022-08-30T03:43:14;14.80;;;5.70;;
68082;SDS011;54870;50.336;3.506;2022-08-30T03:45:40;12.90;;;5.82;;
68082;SDS011;54870;50.336;3.506;2022-08-30T03:48:06;15.32;;;6.75;;
68082;SDS011;54870;50.336;3.506;2022-08-30T03:50:32;12.13;;;5.97;;
68082;SDS011;54870;50.336;3.506;2022-08-30T03:52:59;12.52;;;6.07;;
68082;SDS011;54870;50.336;3.506;2022-08-30T03:55:26;19.30;;;6.47;;
68082;SDS011;54870;50.336;3.506;2022-08-30T03:57:53;15.77;;;6.70;;
68082;SDS011;54870;50.336;3.506;2022-08-30T04:00:19;13.30;;;6.28;;
68082;SDS011;54870;50.336;3.506;2022-08-30T04:02:45;11.43;;;6.22;;
68082;SDS011;54870;50.336;3.506;2022-08-30T04:05:11;14.60;;;7.05;;
68082;SDS011;54870;50.336;3.506;2022-08-30T04:07:37;11.77;;;7.03;;
68082;SDS011;54870;50.336;3.506;2022-08-30T04:10:04;18.48;;;6.93;;
68082;SDS011;54870;50.336;3.506;2022-08-30T04:12:31;12.65;;;6.45;;
68082;SDS011;54870;50.336;3.506;2022-08-30T04:14:57;14.13;;;6.85;;
68082;SDS011;54870;50.336;3.506;2022-08-30T04:17:23;13.13;;;7.07;;
68082;SDS011;54870;50.336;3.506;2022-08-30T04:19:49;15.55;;;6.90;;
68082;SDS011;54870;50.336;3.506;2022-08-30T04:22:15;14.75;;;7.22;;
68082;SDS011;54870;50.336;3.506;2022-08-30T04:24:41;15.98;;;7.07;;
68082;SDS011;54870;50.336;3.506;2022-08-30T04:27:07;16.23;;;7.40;;
68082;SDS011;54870;50.336;3.506;2022-08-30T04:29:33;16.85;;;8.07;;
68082;SDS011;54870;50.336;3.506;2022-08-30T04:31:59;14.73;;;7.55;;
68082;SDS011;54870;50.336;3.506;2022-08-30T04:34:25;17.13;;;7.50;;
68082;SDS011;54870;50.336;3.506;2022-08-30T04:36:51;13.13;;;7.13;;
68082;SDS011;54870;50.336;3.506;2022-08-30T04:39:17;12.32;;;7.10;;
68082;SDS011;54870;50.336;3.506;2022-08-30T04:41:44;16.27;;;8.07;;
68082;SDS011;54870;50.336;3.506;2022-08-30T04:44:10;13.65;;;7.05;;
68082;SDS011;54870;50.336;3.506;2022-08-30T04:46:36;16.80;;;7.38;;
68082;SDS011;54870;50.336;3.506;2022-08-30T04:49:03;13.55;;;6.70;;
68082;SDS011;54870;50.336;3.506;2022-08-30T04:51:29;14.82;;;7.30;;
68082;SDS011;54870;50.336;3.506;2022-08-30T04:53:55;15.07;;;7.57;;
68082;SDS011;54870;50.336;3.506;2022-08-30T04:56:22;16.15;;;7.70;;
68082;SDS011;54870;50.336;3.506;2022-08-30T04:58:48;19.33;;;7.95;;
68082;SDS011;54870;50.336;3.506;2022-08-30T05:01:16;17.38;;;8.07;;
68082;SDS011;54870;50.336;3.506;2022-08-30T05:03:42;19.42;;;8.13;;
68082;SDS011;54870;50.336;3.506;2022-08-30T05:06:10;17.67;;;8.35;;
68082;SDS011;54870;50.336;3.506;2022-08-30T05:08:36;20.42;;;8.30;;
68082;SDS011;54870;50.336;3.506;2022-08-30T05:11:03;16.70;;;8.48;;
68082;SDS011;54870;50.336;3.506;2022-08-30T05:13:29;18.90;;;9.00;;
68082;SDS011;54870;50.336;3.506;2022-08-30T05:15:55;18.67;;;8.90;;
68082;SDS011;54870;50.336;3.506;2022-08-30T05:18:21;16.77;;;8.93;;
68082;SDS011;54870;50.336;3.506;2022-08-30T05:20:47;22.30;;;9.25;;
68082;SDS011;54870;50.336;3.506;2022-08-30T05:23:13;18.27;;;8.57;;
68082;SDS011;54870;50.336;3.506;2022-08-30T05:25:40;19.52;;;8.55;;
68082;SDS011;54870;50.336;3.506;2022-08-30T05:28:07;14.95;;;8.55;;
68082;SDS011;54870;50.336;3.506;2022-08-30T05:30:34;16.92;;;8.45;;
68082;SDS011;54870;50.336;3.506;2022-08-30T05:33:01;19.67;;;9.15;;
68082;SDS011;54870;50.336;3.506;2022-08-30T05:35:27;19.15;;;8.27;;
68082;SDS011;54870;50.336;3.506;2022-08-30T05:37:53;19.75;;;8.35;;
68082;SDS011;54870;50.336;3.506;2022-08-30T05:40:19;17.30;;;8.50;;
68082;SDS011;54870;50.336;3.506;2022-08-30T05:42:45;16.38;;;7.70;;
68082;SDS011;54870;50.336;3.506;2022-08-30T05:45:11;20.23;;;8.98;;
68082;SDS011;54870;50.336;3.506;2022-08-30T05:47:38;20.23;;;9.57;;
68082;SDS011;54870;50.336;3.506;2022-08-30T05:50:04;18.42;;;8.57;;
68082;SDS011;54870;50.336;3.506;2022-08-30T05:52:42;17.13;;;8.80;;
68082;SDS011;54870;50.336;3.506;2022-08-30T05:55:09;28.88;;;16.38;;
68082;SDS011;54870;50.336;3.506;2022-08-30T05:57:36;24.20;;;11.38;;
68082;SDS011;54870;50.336;3.506;2022-08-30T06:00:07;17.08;;;8.15;;
68082;SDS011;54870;50.336;3.506;2022-08-30T06:02:34;15.00;;;8.93;;
68082;SDS011;54870;50.336;3.506;2022-08-30T06:05:01;23.27;;;10.27;;
68082;SDS011;54870;50.336;3.506;2022-08-30T06:07:27;22.95;;;10.10;;
68082;SDS011;54870;50.336;3.506;2022-08-30T06:09:53;24.75;;;10.32;;
68082;SDS011;54870;50.336;3.506;2022-08-30T06:12:18;21.27;;;10.55;;
68082;SDS011;54870;50.336;3.506;2022-08-30T06:14:45;27.20;;;12.60;;
68082;SDS011;54870;50.336;3.506;2022-08-30T06:17:11;32.90;;;13.60;;
68082;SDS011;54870;50.336;3.506;2022-08-30T06:19:37;30.73;;;15.35;;
68082;SDS011;54870;50.336;3.506;2022-08-30T06:22:04;31.88;;;16.40;;
68082;SDS011;54870;50.336;3.506;2022-08-30T06:24:30;30.33;;;15.98;;
68082;SDS011;54870;50.336;3.506;2022-08-30T06:26:56;31.92;;;17.30;;
68082;SDS011;54870;50.336;3.506;2022-08-30T06:29:22;41.70;;;19.88;;
68082;SDS011;54870;50.336;3.506;2022-08-30T06:31:48;73.82;;;19.10;;
68082;SDS011;54870;50.336;3.506;2022-08-30T06:34:15;36.17;;;14.15;;
68082;SDS011;54870;50.336;3.506;2022-08-30T06:36:41;21.73;;;11.50;;
68082;SDS011;54870;50.336;3.506;2022-08-30T06:39:07;20.15;;;11.15;;
68082;SDS011;54870;50.336;3.506;2022-08-30T06:41:35;18.60;;;10.57;;
68082;SDS011;54870;50.336;3.506;2022-08-30T06:44:02;21.67;;;9.82;;
68082;SDS011;54870;50.336;3.506;2022-08-30T06:46:31;19.23;;;10.15;;
68082;SDS011;54870;50.336;3.506;2022-08-30T06:48:57;57.13;;;13.82;;
68082;SDS011;54870;50.336;3.506;2022-08-30T06:51:25;22.67;;;11.35;;
68082;SDS011;54870;50.336;3.506;2022-08-30T06:53:51;17.38;;;9.73;;
68082;SDS011;54870;50.336;3.506;2022-08-30T06:56:18;15.45;;;8.75;;
68082;SDS011;54870;50.336;3.506;2022-08-30T06:58:44;21.17;;;10.20;;
68082;SDS011;54870;50.336;3.506;2022-08-30T07:01:11;20.55;;;10.93;;
68082;SDS011;54870;50.336;3.506;2022-08-30T07:03:37;20.15;;;9.02;;
68082;SDS011;54870;50.336;3.506;2022-08-30T07:06:04;20.98;;;9.55;;
68082;SDS011;54870;50.336;3.506;2022-08-30T07:08:30;19.00;;;9.55;;
68082;SDS011;54870;50.336;3.506;2022-08-30T07:10:56;17.90;;;9.15;;
68082;SDS011;54870;50.336;3.506;2022-08-30T07:13:22;19.05;;;9.23;;
68082;SDS011;54870;50.336;3.506;2022-08-30T07:15:48;17.45;;;9.27;;
68082;SDS011;54870;50.336;3.506;2022-08-30T07:18:15;19.27;;;10.38;;
68082;SDS011;54870;50.336;3.506;2022-08-30T07:21:07;20.08;;;9.52;;
68082;SDS011;54870;50.336;3.506;2022-08-30T07:23:33;19.30;;;9.45;;
68082;SDS011;54870;50.336;3.506;2022-08-30T07:26:02;18.92;;;9.07;;
68082;SDS011;54870;50.336;3.506;2022-08-30T07:28:28;19.25;;;10.35;;
68082;SDS011;54870;50.336;3.506;2022-08-30T07:30:54;17.25;;;9.15;;
68082;SDS011;54870;50.336;3.506;2022-08-30T07:33:20;16.73;;;8.85;;
68082;SDS011;54870;50.336;3.506;2022-08-30T07:35:46;16.45;;;9.10;;
68082;SDS011;54870;50.336;3.506;2022-08-30T07:38:12;16.08;;;8.98;;
68082;SDS011;54870;50.336;3.506;2022-08-30T07:40:39;19.00;;;8.90;;
68082;SDS011;54870;50.336;3.506;2022-08-30T07:43:05;18.48;;;9.13;;
68082;SDS011;54870;50.336;3.506;2022-08-30T07:45:31;16.75;;;8.85;;
68082;SDS011;54870;50.336;3.506;2022-08-30T07:47:57;20.55;;;8.95;;
68082;SDS011;54870;50.336;3.506;2022-08-30T07:50:23;17.27;;;8.80;;
68082;SDS011;54870;50.336;3.506;2022-08-30T07:52:49;18.52;;;9.68;;
68082;SDS011;54870;50.336;3.506;2022-08-30T07:55:15;17.67;;;8.30;;
68082;SDS011;54870;50.336;3.506;2022-08-30T07:57:41;18.75;;;8.63;;
68082;SDS011;54870;50.336;3.506;2022-08-30T08:00:07;18.83;;;8.38;;
68082;SDS011;54870;50.336;3.506;2022-08-30T08:02:34;17.17;;;8.57;;
68082;SDS011;54870;50.336;3.506;2022-08-30T08:05:01;16.13;;;9.20;;
68082;SDS011;54870;50.336;3.506;2022-08-30T08:07:30;17.23;;;8.80;;
68082;SDS011;54870;50.336;3.506;2022-08-30T08:09:56;19.80;;;9.02;;
68082;SDS011;54870;50.336;3.506;2022-08-30T08:12:22;30.83;;;15.70;;
68082;SDS011;54870;50.336;3.506;2022-08-30T08:14:48;21.38;;;12.35;;
68082;SDS011;54870;50.336;3.506;2022-08-30T08:17:14;13.65;;;8.13;;
68082;SDS011;54870;50.336;3.506;2022-08-30T08:19:40;14.02;;;8.20;;
68082;SDS011;54870;50.336;3.506;2022-08-30T08:22:06;14.57;;;8.25;;
68082;SDS011;54870;50.336;3.506;2022-08-30T08:24:33;15.25;;;8.18;;
68082;SDS011;54870;50.336;3.506;2022-08-30T08:26:59;16.30;;;8.35;;
68082;SDS011;54870;50.336;3.506;2022-08-30T08:29:25;17.88;;;8.95;;
68082;SDS011;54870;50.336;3.506;2022-08-30T08:31:52;15.68;;;7.85;;
68082;SDS011;54870;50.336;3.506;2022-08-30T08:34:18;15.68;;;7.65;;
68082;SDS011;54870;50.336;3.506;2022-08-30T08:36:47;14.32;;;6.97;;
68082;SDS011;54870;50.336;3.506;2022-08-30T08:39:13;17.33;;;8.30;;
68082;SDS011;54870;50.336;3.506;2022-08-30T08:41:54;15.80;;;7.53;;
68082;SDS011;54870;50.336;3.506;2022-08-30T08:44:32;17.02;;;7.90;;
68082;SDS011;54870;50.336;3.506;2022-08-30T08:47:11;16.23;;;7.38;;
68082;SDS011;54870;50.336;3.506;2022-08-30T08:49:38;13.73;;;7.55;;
68082;SDS011;54870;50.336;3.506;2022-08-30T08:52:06;17.35;;;7.50;;
68082;SDS011;54870;50.336;3.506;2022-08-30T08:54:54;15.75;;;7.65;;
68082;SDS011;54870;50.336;3.506;2022-08-30T08:57:22;14.15;;;7.25;;
68082;SDS011;54870;50.336;3.506;2022-08-30T08:59:48;14.68;;;7.50;;
68082;SDS011;54870;50.336;3.506;2022-08-30T09:02:25;13.27;;;7.25;;
68082;SDS011;54870;50.336;3.506;2022-08-30T09:04:55;14.27;;;7.30;;
68082;SDS011;54870;50.336;3.506;2022-08-30T09:07:23;16.55;;;8.00;;
68082;SDS011;54870;50.336;3.506;2022-08-30T09:09:51;18.30;;;7.70;;
68082;SDS011;54870;50.336;3.506;2022-08-30T09:12:17;19.73;;;8.27;;
68082;SDS011;54870;50.336;3.506;2022-08-30T09:14:46;13.68;;;7.43;;
68082;SDS011;54870;50.336;3.506;2022-08-30T09:17:13;14.32;;;8.05;;
68082;SDS011;54870;50.336;3.506;2022-08-30T09:22:32;15.32;;;7.65;;
68082;SDS011;54870;50.336;3.506;2022-08-30T09:27:38;14.98;;;8.25;;
68082;SDS011;54870;50.336;3.506;2022-08-30T09:30:07;15.32;;;8.15;;
68082;SDS011;54870;50.336;3.506;2022-08-30T09:32:35;22.02;;;8.25;;
68082;SDS011;54870;50.336;3.506;2022-08-30T09:35:02;17.65;;;7.90;;
68082;SDS011;54870;50.336;3.506;2022-08-30T09:40:08;14.38;;;7.22;;
68082;SDS011;54870;50.336;3.506;2022-08-30T09:42:35;19.40;;;7.75;;
68082;SDS011;54870;50.336;3.506;2022-08-30T09:45:03;13.02;;;7.32;;
68082;SDS011;54870;50.336;3.506;2022-08-30T09:47:37;19.10;;;8.15;;
68082;SDS011;54870;50.336;3.506;2022-08-30T09:50:17;17.00;;;8.15;;
68082;SDS011;54870;50.336;3.506;2022-08-30T09:55:23;21.48;;;10.02;;
68082;SDS011;54870;50.336;3.506;2022-08-30T10:00:23;18.42;;;8.57;;
68082;SDS011;54870;50.336;3.506;2022-08-30T10:08:25;15.57;;;7.35;;
68082;SDS011;54870;50.336;3.506;2022-08-30T10:11:02;13.35;;;6.97;;
68082;SDS011;54870;50.336;3.506;2022-08-30T10:16:14;15.43;;;7.35;;
68082;SDS011;54870;50.336;3.506;2022-08-30T10:19:29;14.05;;;7.20;;
68082;SDS011;54870;50.336;3.506;2022-08-30T10:21:46;17.25;;;7.68;;
68082;SDS011;54870;50.336;3.506;2022-08-30T10:24:14;14.15;;;6.93;;
68082;SDS011;54870;50.336;3.506;2022-08-30T10:26:50;12.90;;;6.70;;
68082;SDS011;54870;50.336;3.506;2022-08-30T10:29:22;15.15;;;6.68;;
68082;SDS011;54870;50.336;3.506;2022-08-30T10:34:28;13.43;;;6.65;;
68082;SDS011;54870;50.336;3.506;2022-08-30T10:37:03;14.60;;;6.35;;
68082;SDS011;54870;50.336;3.506;2022-08-30T10:39:49;17.27;;;7.28;;
68082;SDS011;54870;50.336;3.506;2022-08-30T10:42:20;15.15;;;6.80;;
68082;SDS011;54870;50.336;3.506;2022-08-30T10:44:48;14.23;;;6.72;;
68082;SDS011;54870;50.336;3.506;2022-08-30T10:49:43;12.98;;;6.30;;
68082;SDS011;54870;50.336;3.506;2022-08-30T10:52:21;14.05;;;6.30;;
68082;SDS011;54870;50.336;3.506;2022-08-30T10:54:56;13.65;;;6.93;;
68082;SDS011;54870;50.336;3.506;2022-08-30T10:57:23;13.82;;;6.72;;
68082;SDS011;54870;50.336;3.506;2022-08-30T10:59:50;14.45;;;6.25;;
68082;SDS011;54870;50.336;3.506;2022-08-30T11:04:52;14.32;;;6.05;;
68082;SDS011;54870;50.336;3.506;2022-08-30T11:07:33;10.88;;;4.70;;
68082;SDS011;54870;50.336;3.506;2022-08-30T11:10:14;13.48;;;5.18;;
68082;SDS011;54870;50.336;3.506;2022-08-30T11:15:25;12.45;;;5.45;;
68082;SDS011;54870;50.336;3.506;2022-08-30T11:17:59;15.82;;;6.38;;
68082;SDS011;54870;50.336;3.506;2022-08-30T11:25:51;11.40;;;5.20;;
68082;SDS011;54870;50.336;3.506;2022-08-30T11:36:11;10.45;;;5.57;;
68082;SDS011;54870;50.336;3.506;2022-08-30T11:48:54;17.75;;;5.82;;
68082;SDS011;54870;50.336;3.506;2022-08-30T11:51:36;10.75;;;4.45;;
68082;SDS011;54870;50.336;3.506;2022-08-30T11:54:11;9.68;;;3.92;;
68082;SDS011;54870;50.336;3.506;2022-08-30T11:59:16;11.32;;;4.70;;
68082;SDS011;54870;50.336;3.506;2022-08-30T12:01:44;9.68;;;4.32;;
68082;SDS011;54870;50.336;3.506;2022-08-30T12:06:54;10.98;;;4.10;;
68082;SDS011;54870;50.336;3.506;2022-08-30T12:12:02;11.70;;;4.72;;
68082;SDS011;54870;50.336;3.506;2022-08-30T12:16:58;9.90;;;4.30;;
68082;SDS011;54870;50.336;3.506;2022-08-30T12:19:44;8.80;;;3.85;;
68082;SDS011;54870;50.336;3.506;2022-08-30T12:22:14;9.50;;;3.40;;
68082;SDS011;54870;50.336;3.506;2022-08-30T12:24:41;10.65;;;3.90;;
68082;SDS011;54870;50.336;3.506;2022-08-30T12:29:51;9.07;;;3.53;;
68082;SDS011;54870;50.336;3.506;2022-08-30T12:32:17;13.13;;;3.70;;
68082;SDS011;54870;50.336;3.506;2022-08-30T12:34:52;11.55;;;4.20;;
68082;SDS011;54870;50.336;3.506;2022-08-30T12:37:24;9.55;;;3.85;;
68082;SDS011;54870;50.336;3.506;2022-08-30T12:42:30;12.30;;;3.17;;
68082;SDS011;54870;50.336;3.506;2022-08-30T12:44:57;9.48;;;3.28;;
68082;SDS011;54870;50.336;3.506;2022-08-30T12:47:40;12.40;;;3.67;;
68082;SDS011;54870;50.336;3.506;2022-08-30T12:50:08;12.73;;;3.65;;
68082;SDS011;54870;50.336;3.506;2022-08-30T12:52:38;10.32;;;3.30;;
68082;SDS011;54870;50.336;3.506;2022-08-30T12:55:21;8.43;;;3.47;;
68082;SDS011;54870;50.336;3.506;2022-08-30T13:02:50;8.27;;;3.10;;
68082;SDS011;54870;50.336;3.506;2022-08-30T13:05:31;7.57;;;3.33;;
68082;SDS011;54870;50.336;3.506;2022-08-30T13:10:54;9.63;;;3.75;;
68082;SDS011;54870;50.336;3.506;2022-08-30T13:15:53;8.93;;;3.38;;
68082;SDS011;54870;50.336;3.506;2022-08-30T13:18:26;11.32;;;3.30;;
68082;SDS011;54870;50.336;3.506;2022-08-30T13:21:55;11.98;;;3.80;;
68082;SDS011;54870;50.336;3.506;2022-08-30T13:23:50;15.10;;;3.40;;
68082;SDS011;54870;50.336;3.506;2022-08-30T13:26:16;9.05;;;3.15;;
68082;SDS011;54870;50.336;3.506;2022-08-30T13:28:46;8.85;;;3.38;;
68082;SDS011;54870;50.336;3.506;2022-08-30T13:31:13;11.55;;;3.22;;
68082;SDS011;54870;50.336;3.506;2022-08-30T13:33:39;11.00;;;3.08;;
68082;SDS011;54870;50.336;3.506;2022-08-30T13:36:05;6.13;;;3.22;;
68082;SDS011;54870;50.336;3.506;2022-08-30T13:38:31;9.30;;;3.33;;
68082;SDS011;54870;50.336;3.506;2022-08-30T13:40:57;9.68;;;3.50;;
68082;SDS011;54870;50.336;3.506;2022-08-30T13:43:26;11.32;;;3.25;;
68082;SDS011;54870;50.336;3.506;2022-08-30T13:45:52;12.15;;;3.33;;
68082;SDS011;54870;50.336;3.506;2022-08-30T13:48:18;9.65;;;3.20;;
68082;SDS011;54870;50.336;3.506;2022-08-30T13:50:44;11.00;;;3.60;;
68082;SDS011;54870;50.336;3.506;2022-08-30T13:53:10;6.20;;;3.03;;
68082;SDS011;54870;50.336;3.506;2022-08-30T13:55:36;9.77;;;3.20;;
68082;SDS011;54870;50.336;3.506;2022-08-30T13:58:03;11.88;;;3.15;;
68082;SDS011;54870;50.336;3.506;2022-08-30T14:00:30;25.38;;;18.83;;
68082;SDS011;54870;50.336;3.506;2022-08-30T14:02:56;11.15;;;6.05;;
68082;SDS011;54870;50.336;3.506;2022-08-30T14:05:33;9.07;;;3.42;;
68082;SDS011;54870;50.336;3.506;2022-08-30T14:07:59;8.48;;;3.65;;
68082;SDS011;54870;50.336;3.506;2022-08-30T14:10:26;7.18;;;3.20;;
68082;SDS011;54870;50.336;3.506;2022-08-30T14:12:53;10.15;;;3.10;;
68082;SDS011;54870;50.336;3.506;2022-08-30T14:15:19;8.32;;;3.13;;
68082;SDS011;54870;50.336;3.506;2022-08-30T14:17:45;9.25;;;3.10;;
68082;SDS011;54870;50.336;3.506;2022-08-30T14:20:11;7.40;;;3.22;;
68082;SDS011;54870;50.336;3.506;2022-08-30T14:22:37;8.93;;;3.15;;
68082;SDS011;54870;50.336;3.506;2022-08-30T14:25:03;8.73;;;3.28;;
68082;SDS011;54870;50.336;3.506;2022-08-30T14:27:30;7.60;;;3.28;;
68082;SDS011;54870;50.336;3.506;2022-08-30T14:29:56;8.80;;;3.45;;
68082;SDS011;54870;50.336;3.506;2022-08-30T14:32:22;9.23;;;3.38;;
68082;SDS011;54870;50.336;3.506;2022-08-30T14:34:48;7.88;;;3.33;;
68082;SDS011;54870;50.336;3.506;2022-08-30T14:37:14;9.20;;;3.25;;
68082;SDS011;54870;50.336;3.506;2022-08-30T14:39:41;10.73;;;3.53;;
68082;SDS011;54870;50.336;3.506;2022-08-30T14:42:07;12.30;;;3.60;;
68082;SDS011;54870;50.336;3.506;2022-08-30T14:44:35;10.07;;;3.70;;
68082;SDS011;54870;50.336;3.506;2022-08-30T14:47:02;10.60;;;3.80;;
68082;SDS011;54870;50.336;3.506;2022-08-30T14:49:28;7.47;;;3.25;;
68082;SDS011;54870;50.336;3.506;2022-08-30T14:51:54;5.95;;;3.20;;
68082;SDS011;54870;50.336;3.506;2022-08-30T14:54:24;9.43;;;3.47;;
68082;SDS011;54870;50.336;3.506;2022-08-30T14:56:50;9.38;;;3.30;;
68082;SDS011;54870;50.336;3.506;2022-08-30T14:59:16;8.75;;;3.47;;
68082;SDS011;54870;50.336;3.506;2022-08-30T15:01:42;8.68;;;3.15;;
68082;SDS011;54870;50.336;3.506;2022-08-30T15:04:09;12.00;;;3.60;;
68082;SDS011;54870;50.336;3.506;2022-08-30T15:06:36;9.80;;;3.47;;
68082;SDS011;54870;50.336;3.506;2022-08-30T15:09:03;9.25;;;3.42;;
68082;SDS011;54870;50.336;3.506;2022-08-30T15:11:29;7.35;;;2.97;;
68082;SDS011;54870;50.336;3.506;2022-08-30T15:13:55;8.80;;;3.28;;
68082;SDS011;54870;50.336;3.506;2022-08-30T15:16:32;6.38;;;3.45;;
68082;SDS011;54870;50.336;3.506;2022-08-30T15:18:59;9.00;;;3.53;;
68082;SDS011;54870;50.336;3.506;2022-08-30T15:21:26;9.48;;;3.35;;
68082;SDS011;54870;50.336;3.506;2022-08-30T15:23:54;9.23;;;3.25;;
68082;SDS011;54870;50.336;3.506;2022-08-30T15:26:20;11.02;;;3.20;;
68082;SDS011;54870;50.336;3.506;2022-08-30T15:28:46;8.77;;;3.60;;
68082;SDS011;54870;50.336;3.506;2022-08-30T15:31:12;11.32;;;4.03;;
68082;SDS011;54870;50.336;3.506;2022-08-30T15:33:39;8.85;;;3.47;;
68082;SDS011;54870;50.336;3.506;2022-08-30T15:36:05;10.52;;;3.53;;
68082;SDS011;54870;50.336;3.506;2022-08-30T15:38:32;9.07;;;4.03;;
68082;SDS011;54870;50.336;3.506;2022-08-30T15:40:59;14.35;;;3.70;;
68082;SDS011;54870;50.336;3.506;2022-08-30T15:43:27;6.47;;;3.60;;
68082;SDS011;54870;50.336;3.506;2022-08-30T15:45:53;12.00;;;4.30;;
68082;SDS011;54870;50.336;3.506;2022-08-30T15:48:20;13.88;;;4.20;;
68082;SDS011;54870;50.336;3.506;2022-08-30T15:50:46;10.57;;;3.47;;
68082;SDS011;54870;50.336;3.506;2022-08-30T15:53:20;11.15;;;4.15;;
68082;SDS011;54870;50.336;3.506;2022-08-30T15:55:46;11.50;;;3.55;;
68082;SDS011;54870;50.336;3.506;2022-08-30T15:58:12;11.23;;;3.88;;
68082;SDS011;54870;50.336;3.506;2022-08-30T16:00:38;8.20;;;3.70;;